sensor_id;sensor_type;location;lat;lon;timestamp;pressure;altitude;pressure_sealevel;temperature;humidity
72124;BME280;63818;37.134;-8.548;2022-12-18T00:03:47;101982.2;;;14.6;82.5
72124;BME280;63818;37.134;-8.548;2022-12-18T00:08:36;101981.6;;;14.7;82.0
72124;BME280;63818;37.134;-8.548;2022-12-18T00:13:25;101981.7;;;14.6;81.9
72124;BME280;63818;37.134;-8.548;2022-12-18T00:18:17;101972.3;;;14.6;81.7
72124;BME280;63818;37.134;-8.548;2022-12-18T00:23:06;101977.2;;;14.6;81.4
72124;BME280;63818;37.134;-8.548;2022-12-18T00:27:55;101977.0;;;14.6;81.7
72124;BME280;63818;37.134;-8.548;2022-12-18T00:32:44;101981.8;;;14.4;82.1
72124;BME280;63818;37.134;-8.548;2022-12-18T00:37:33;101973.2;;;14.4;82.1
72124;BME280;63818;37.134;-8.548;2022-12-18T00:42:21;101971.3;;;14.4;81.9
72124;BME280;63818;37.134;-8.548;2022-12-18T00:47:10;101958.0;;;14.5;81.8
72124;BME280;63818;37.134;-8.548;2022-12-18T00:52:00;101957.2;;;14.5;81.7
72124;BME280;63818;37.134;-8.548;2022-12-18T00:56:49;101953.9;;;14.5;81.6
72124;BME280;63818;37.134;-8.548;2022-12-18T01:01:39;101953.6;;;14.5;81.1
72124;BME280;63818;37.134;-8.548;2022-12-18T01:06:28;101944.8;;;14.4;81.0
72124;BME280;63818;37.134;-8.548;2022-12-18T01:11:20;101948.1;;;14.4;81.1
72124;BME280;63818;37.134;-8.548;2022-12-18T01:16:11;101953.3;;;14.4;81.1
72124;BME280;63818;37.134;-8.548;2022-12-18T01:21:00;101948.8;;;14.3;81.1
72124;BME280;63818;37.134;-8.548;2022-12-18T01:25:49;101949.8;;;14.3;81.5
72124;BME280;63818;37.134;-8.548;2022-12-18T01:30:38;101957.4;;;14.4;81.4
72124;BME280;63818;37.134;-8.548;2022-12-18T01:35:29;101953.1;;;14.4;81.1
72124;BME280;63818;37.134;-8.548;2022-12-18T01:40:18;101955.7;;;14.3;80.8
72124;BME280;63818;37.134;-8.548;2022-12-18T01:45:24;101954.0;;;14.2;80.8
72124;BME280;63818;37.134;-8.548;2022-12-18T01:50:16;101960.9;;;14.2;81.3
72124;BME280;63818;37.134;-8.548;2022-12-18T01:55:07;101959.5;;;14.1;81.2
72124;BME280;63818;37.134;-8.548;2022-12-18T01:59:59;101964.2;;;14.0;81.7
72124;BME280;63818;37.134;-8.548;2022-12-18T02:04:48;101971.1;;;14.0;81.9
72124;BME280;63818;37.134;-8.548;2022-12-18T02:09:42;101976.1;;;14.1;81.6
72124;BME280;63818;37.134;-8.548;2022-12-18T02:14:40;101981.3;;;14.0;81.4
72124;BME280;63818;37.134;-8.548;2022-12-18T02:19:42;101983.3;;;14.0;81.8
72124;BME280;63818;37.134;-8.548;2022-12-18T02:24:40;101980.0;;;14.0;81.6
72124;BME280;63818;37.134;-8.548;2022-12-18T02:29:35;101982.3;;;13.9;81.6
72124;BME280;63818;37.134;-8.548;2022-12-18T02:34:28;101975.3;;;13.9;81.5
72124;BME280;63818;37.134;-8.548;2022-12-18T02:39:19;101976.9;;;13.9;81.6
72124;BME280;63818;37.134;-8.548;2022-12-18T02:44:12;101997.4;;;13.9;81.8
72124;BME280;63818;37.134;-8.548;2022-12-18T02:49:05;101994.4;;;13.9;81.2
72124;BME280;63818;37.134;-8.548;2022-12-18T02:54:05;101988.7;;;13.8;81.7
72124;BME280;63818;37.134;-8.548;2022-12-18T02:59:00;101987.1;;;13.8;81.9
72124;BME280;63818;37.134;-8.548;2022-12-18T03:03:53;101990.0;;;13.8;81.6
72124;BME280;63818;37.134;-8.548;2022-12-18T03:08:46;101985.5;;;13.8;81.3
72124;BME280;63818;37.134;-8.548;2022-12-18T03:13:42;101984.1;;;13.8;81.7
72124;BME280;63818;37.134;-8.548;2022-12-18T03:18:35;101988.5;;;13.7;81.6
72124;BME280;63818;37.134;-8.548;2022-12-18T03:23:30;101988.2;;;13.8;81.4
72124;BME280;63818;37.134;-8.548;2022-12-18T03:28:22;101983.3;;;13.8;81.5
72124;BME280;63818;37.134;-8.548;2022-12-18T03:33:15;101989.5;;;13.8;81.5
72124;BME280;63818;37.134;-8.548;2022-12-18T03:38:05;101984.7;;;13.8;81.4
72124;BME280;63818;37.134;-8.548;2022-12-18T03:43:02;101972.2;;;13.8;81.2
72124;BME280;63818;37.134;-8.548;2022-12-18T03:47:58;101973.7;;;13.8;81.5
72124;BME280;63818;37.134;-8.548;2022-12-18T03:52:51;101969.1;;;13.7;81.6
72124;BME280;63818;37.134;-8.548;2022-12-18T03:57:42;101968.0;;;13.6;81.6
72124;BME280;63818;37.134;-8.548;2022-12-18T04:02:36;101968.4;;;13.7;82.0
72124;BME280;63818;37.134;-8.548;2022-12-18T04:07:29;101978.7;;;13.6;82.1
72124;BME280;63818;37.134;-8.548;2022-12-18T04:12:19;101972.7;;;13.7;82.4
72124;BME280;63818;37.134;-8.548;2022-12-18T04:17:08;101984.2;;;13.7;81.7
72124;BME280;63818;37.134;-8.548;2022-12-18T04:21:56;101987.0;;;13.7;82.0
72124;BME280;63818;37.134;-8.548;2022-12-18T04:26:45;101988.1;;;13.7;82.3
72124;BME280;63818;37.134;-8.548;2022-12-18T04:31:34;101979.9;;;13.7;82.1
72124;BME280;63818;37.134;-8.548;2022-12-18T04:36:25;101979.1;;;13.7;81.8
72124;BME280;63818;37.134;-8.548;2022-12-18T04:41:14;101983.5;;;13.7;82.6
72124;BME280;63818;37.134;-8.548;2022-12-18T04:46:06;101981.8;;;13.7;82.5
72124;BME280;63818;37.134;-8.548;2022-12-18T04:50:55;101984.0;;;13.7;82.5
72124;BME280;63818;37.134;-8.548;2022-12-18T04:55:44;101986.2;;;13.7;82.8
72124;BME280;63818;37.134;-8.548;2022-12-18T05:00:36;101985.1;;;13.7;83.0
72124;BME280;63818;37.134;-8.548;2022-12-18T05:05:28;101987.2;;;13.7;83.1
72124;BME280;63818;37.134;-8.548;2022-12-18T05:10:16;101984.2;;;13.7;83.3
72124;BME280;63818;37.134;-8.548;2022-12-18T05:15:05;101988.0;;;13.7;83.5
72124;BME280;63818;37.134;-8.548;2022-12-18T05:19:56;101987.7;;;13.7;83.4
72124;BME280;63818;37.134;-8.548;2022-12-18T05:24:47;101998.8;;;13.7;83.7
72124;BME280;63818;37.134;-8.548;2022-12-18T05:29:38;101994.5;;;13.8;84.0
72124;BME280;63818;37.134;-8.548;2022-12-18T05:34:29;102000.4;;;13.7;84.0
72124;BME280;63818;37.134;-8.548;2022-12-18T05:39:18;101997.7;;;13.7;84.5
72124;BME280;63818;37.134;-8.548;2022-12-18T05:44:06;101995.6;;;13.7;84.3
72124;BME280;63818;37.134;-8.548;2022-12-18T05:48:55;101997.5;;;13.7;84.3
72124;BME280;63818;37.134;-8.548;2022-12-18T05:53:49;102000.0;;;13.6;85.0
72124;BME280;63818;37.134;-8.548;2022-12-18T05:58:40;101994.8;;;13.7;85.1
72124;BME280;63818;37.134;-8.548;2022-12-18T06:03:30;101998.3;;;13.7;85.7
72124;BME280;63818;37.134;-8.548;2022-12-18T06:08:19;101991.3;;;13.7;85.5
72124;BME280;63818;37.134;-8.548;2022-12-18T06:13:08;101990.8;;;13.7;85.8
72124;BME280;63818;37.134;-8.548;2022-12-18T06:18:00;101989.7;;;13.7;86.4
72124;BME280;63818;37.134;-8.548;2022-12-18T06:22:49;102000.5;;;13.7;86.1
72124;BME280;63818;37.134;-8.548;2022-12-18T06:27:38;101997.5;;;13.7;86.0
72124;BME280;63818;37.134;-8.548;2022-12-18T06:32:27;101997.2;;;13.7;86.2
72124;BME280;63818;37.134;-8.548;2022-12-18T06:37:16;102009.3;;;13.7;86.2
72124;BME280;63818;37.134;-8.548;2022-12-18T06:42:04;102014.0;;;13.7;86.5
72124;BME280;63818;37.134;-8.548;2022-12-18T06:46:53;102016.7;;;13.7;86.5
72124;BME280;63818;37.134;-8.548;2022-12-18T06:51:42;102031.3;;;13.7;87.0
72124;BME280;63818;37.134;-8.548;2022-12-18T06:56:30;102039.1;;;13.7;87.0
72124;BME280;63818;37.134;-8.548;2022-12-18T07:01:19;102052.6;;;13.7;87.5
72124;BME280;63818;37.134;-8.548;2022-12-18T07:06:12;102054.5;;;13.7;87.8
72124;BME280;63818;37.134;-8.548;2022-12-18T07:11:04;102059.9;;;13.7;87.8
72124;BME280;63818;37.134;-8.548;2022-12-18T07:15:53;102059.9;;;13.7;88.1
72124;BME280;63818;37.134;-8.548;2022-12-18T07:20:42;102058.5;;;13.8;88.3
72124;BME280;63818;37.134;-8.548;2022-12-18T07:25:36;102058.9;;;13.7;89.0
72124;BME280;63818;37.134;-8.548;2022-12-18T07:30:25;102062.8;;;13.7;89.4
72124;BME280;63818;37.134;-8.548;2022-12-18T07:35:14;102070.2;;;13.7;90.1
72124;BME280;63818;37.134;-8.548;2022-12-18T07:40:03;102074.8;;;13.7;90.3
72124;BME280;63818;37.134;-8.548;2022-12-18T07:44:52;102080.4;;;13.7;90.1
72124;BME280;63818;37.134;-8.548;2022-12-18T07:49:40;102081.7;;;13.8;90.2
72124;BME280;63818;37.134;-8.548;2022-12-18T07:54:31;102082.8;;;13.8;90.0
72124;BME280;63818;37.134;-8.548;2022-12-18T07:59:20;102093.3;;;13.8;89.9
72124;BME280;63818;37.134;-8.548;2022-12-18T08:04:10;102086.0;;;13.8;89.7
72124;BME280;63818;37.134;-8.548;2022-12-18T08:09:03;102092.3;;;13.7;89.8
72124;BME280;63818;37.134;-8.548;2022-12-18T08:13:53;102103.0;;;13.8;90.0
72124;BME280;63818;37.134;-8.548;2022-12-18T08:18:42;102104.6;;;13.8;89.8
72124;BME280;63818;37.134;-8.548;2022-12-18T08:23:31;102113.4;;;13.8;90.3
72124;BME280;63818;37.134;-8.548;2022-12-18T08:28:24;102119.6;;;13.8;90.3
72124;BME280;63818;37.134;-8.548;2022-12-18T08:33:13;102119.3;;;13.9;90.6
72124;BME280;63818;37.134;-8.548;2022-12-18T08:38:01;102116.4;;;13.9;90.8
72124;BME280;63818;37.134;-8.548;2022-12-18T08:42:50;102119.8;;;13.9;90.9
72124;BME280;63818;37.134;-8.548;2022-12-18T08:47:39;102127.6;;;13.9;90.9
72124;BME280;63818;37.134;-8.548;2022-12-18T08:52:27;102132.2;;;13.9;90.6
72124;BME280;63818;37.134;-8.548;2022-12-18T08:57:16;102143.0;;;13.9;91.3
72124;BME280;63818;37.134;-8.548;2022-12-18T09:02:05;102141.7;;;14.1;91.8
72124;BME280;63818;37.134;-8.548;2022-12-18T09:06:53;102146.2;;;14.1;92.1
72124;BME280;63818;37.134;-8.548;2022-12-18T09:11:43;102153.1;;;14.2;92.2
72124;BME280;63818;37.134;-8.548;2022-12-18T09:16:31;102157.6;;;14.2;92.4
72124;BME280;63818;37.134;-8.548;2022-12-18T09:21:20;102164.5;;;14.3;92.6
72124;BME280;63818;37.134;-8.548;2022-12-18T09:26:12;102174.2;;;14.4;92.6
72124;BME280;63818;37.134;-8.548;2022-12-18T09:31:03;102170.6;;;14.4;93.1
72124;BME280;63818;37.134;-8.548;2022-12-18T09:36:00;102167.5;;;14.5;93.4
72124;BME280;63818;37.134;-8.548;2022-12-18T09:40:52;102177.1;;;14.6;93.8
72124;BME280;63818;37.134;-8.548;2022-12-18T09:45:44;102188.6;;;14.6;94.5
72124;BME280;63818;37.134;-8.548;2022-12-18T09:50:36;102199.5;;;14.7;95.1
72124;BME280;63818;37.134;-8.548;2022-12-18T09:55:34;102200.7;;;14.8;95.9
72124;BME280;63818;37.134;-8.548;2022-12-18T10:00:25;102207.8;;;14.8;96.2
72124;BME280;63818;37.134;-8.548;2022-12-18T10:05:15;102217.0;;;14.8;96.8
72124;BME280;63818;37.134;-8.548;2022-12-18T10:10:12;102220.8;;;14.8;97.3
72124;BME280;63818;37.134;-8.548;2022-12-18T10:15:06;102216.9;;;14.8;97.5
72124;BME280;63818;37.134;-8.548;2022-12-18T10:19:59;102222.7;;;14.9;98.1
72124;BME280;63818;37.134;-8.548;2022-12-18T10:24:53;102225.5;;;15.0;98.6
72124;BME280;63818;37.134;-8.548;2022-12-18T10:29:44;102218.6;;;15.1;99.1
72124;BME280;63818;37.134;-8.548;2022-12-18T10:34:38;102213.3;;;15.2;99.7
72124;BME280;63818;37.134;-8.548;2022-12-18T10:39:27;102209.4;;;15.2;99.8
72124;BME280;63818;37.134;-8.548;2022-12-18T10:44:19;102220.9;;;15.3;99.9
72124;BME280;63818;37.134;-8.548;2022-12-18T10:49:26;102227.0;;;15.4;99.7
72124;BME280;63818;37.134;-8.548;2022-12-18T10:54:21;102225.2;;;15.4;99.4
72124;BME280;63818;37.134;-8.548;2022-12-18T10:59:12;102222.9;;;15.5;99.6
72124;BME280;63818;37.134;-8.548;2022-12-18T11:04:09;102209.0;;;15.5;99.5
72124;BME280;63818;37.134;-8.548;2022-12-18T11:09:02;102211.3;;;15.6;99.1
72124;BME280;63818;37.134;-8.548;2022-12-18T11:14:01;102206.7;;;15.6;98.4
72124;BME280;63818;37.134;-8.548;2022-12-18T11:18:51;102202.6;;;15.6;98.6
72124;BME280;63818;37.134;-8.548;2022-12-18T11:23:48;102186.2;;;15.7;98.8
72124;BME280;63818;37.134;-8.548;2022-12-18T11:28:40;102193.5;;;15.7;98.9
72124;BME280;63818;37.134;-8.548;2022-12-18T11:33:30;102175.5;;;15.8;98.4
72124;BME280;63818;37.134;-8.548;2022-12-18T11:38:22;102173.1;;;15.8;98.3
72124;BME280;63818;37.134;-8.548;2022-12-18T11:43:15;102166.6;;;15.9;97.8
72124;BME280;63818;37.134;-8.548;2022-12-18T11:48:18;102168.5;;;15.8;97.5
72124;BME280;63818;37.134;-8.548;2022-12-18T11:53:12;102162.1;;;15.8;97.2
72124;BME280;63818;37.134;-8.548;2022-12-18T11:58:04;102154.8;;;15.8;97.0
72124;BME280;63818;37.134;-8.548;2022-12-18T12:03:24;102154.0;;;15.9;97.3
72124;BME280;63818;37.134;-8.548;2022-12-18T12:08:21;102151.7;;;16.0;96.3
72124;BME280;63818;37.134;-8.548;2022-12-18T12:13:32;102146.2;;;16.0;96.3
72124;BME280;63818;37.134;-8.548;2022-12-18T12:18:31;102137.1;;;16.1;95.6
72124;BME280;63818;37.134;-8.548;2022-12-18T12:23:33;102129.1;;;16.1;95.6
72124;BME280;63818;37.134;-8.548;2022-12-18T12:28:31;102132.6;;;16.1;95.2
72124;BME280;63818;37.134;-8.548;2022-12-18T12:33:31;102127.2;;;16.1;94.5
72124;BME280;63818;37.134;-8.548;2022-12-18T12:38:26;102108.2;;;16.1;94.6
72124;BME280;63818;37.134;-8.548;2022-12-18T12:43:29;102107.0;;;16.2;95.2
72124;BME280;63818;37.134;-8.548;2022-12-18T12:48:30;102100.0;;;16.2;94.7
72124;BME280;63818;37.134;-8.548;2022-12-18T12:53:26;102100.7;;;16.3;93.8
72124;BME280;63818;37.134;-8.548;2022-12-18T12:58:31;102090.0;;;16.3;93.6
72124;BME280;63818;37.134;-8.548;2022-12-18T13:03:34;102088.4;;;16.3;94.0
72124;BME280;63818;37.134;-8.548;2022-12-18T13:08:26;102089.1;;;16.4;93.9
72124;BME280;63818;37.134;-8.548;2022-12-18T13:13:16;102084.0;;;16.4;93.2
72124;BME280;63818;37.134;-8.548;2022-12-18T13:18:06;102081.6;;;16.5;92.8
72124;BME280;63818;37.134;-8.548;2022-12-18T13:22:59;102075.5;;;16.6;92.1
72124;BME280;63818;37.134;-8.548;2022-12-18T13:27:55;102070.1;;;16.7;91.0
72124;BME280;63818;37.134;-8.548;2022-12-18T13:32:45;102070.2;;;16.7;90.9
72124;BME280;63818;37.134;-8.548;2022-12-18T13:37:53;102066.9;;;16.7;90.5
72124;BME280;63818;37.134;-8.548;2022-12-18T13:42:42;102066.9;;;16.8;90.1
72124;BME280;63818;37.134;-8.548;2022-12-18T13:47:34;102060.4;;;16.9;89.5
72124;BME280;63818;37.134;-8.548;2022-12-18T13:57:27;102058.4;;;17.2;88.4
72124;BME280;63818;37.134;-8.548;2022-12-18T14:02:21;102055.8;;;17.5;86.5
72124;BME280;63818;37.134;-8.548;2022-12-18T14:07:16;102045.8;;;17.9;84.6
72124;BME280;63818;37.134;-8.548;2022-12-18T14:12:06;102049.5;;;18.4;82.5
72124;BME280;63818;37.134;-8.548;2022-12-18T14:16:58;102047.5;;;18.6;81.0
72124;BME280;63818;37.134;-8.548;2022-12-18T14:21:48;102048.6;;;18.1;81.2
72124;BME280;63818;37.134;-8.548;2022-12-18T14:26:38;102031.8;;;19.6;77.4
72124;BME280;63818;37.134;-8.548;2022-12-18T14:31:28;102034.9;;;18.8;77.4
72124;BME280;63818;37.134;-8.548;2022-12-18T14:36:19;102030.3;;;20.2;75.7
72124;BME280;63818;37.134;-8.548;2022-12-18T14:41:12;102014.2;;;21.3;68.8
72124;BME280;63818;37.134;-8.548;2022-12-18T14:46:01;102021.3;;;19.1;74.0
72124;BME280;63818;37.134;-8.548;2022-12-18T14:51:00;102017.1;;;19.2;73.9
72124;BME280;63818;37.134;-8.548;2022-12-18T14:55:49;102007.2;;;20.8;70.0
72124;BME280;63818;37.134;-8.548;2022-12-18T15:00:41;102012.9;;;18.8;74.6
72124;BME280;63818;37.134;-8.548;2022-12-18T15:05:33;101985.1;;;21.8;66.8
72124;BME280;63818;37.134;-8.548;2022-12-18T15:10:24;101978.2;;;23.5;60.1
72124;BME280;63818;37.134;-8.548;2022-12-18T15:15:46;101979.1;;;24.0;57.7
72124;BME280;63818;37.134;-8.548;2022-12-18T15:20:43;101985.5;;;24.0;56.2
72124;BME280;63818;37.134;-8.548;2022-12-18T15:25:34;101986.5;;;23.3;58.5
72124;BME280;63818;37.134;-8.548;2022-12-18T15:30:24;102002.1;;;22.4;61.4
72124;BME280;63818;37.134;-8.548;2022-12-18T15:35:20;102003.6;;;21.3;64.9
72124;BME280;63818;37.134;-8.548;2022-12-18T15:40:11;102025.6;;;20.1;68.8
72124;BME280;63818;37.134;-8.548;2022-12-18T15:45:00;102026.4;;;20.1;69.5
72124;BME280;63818;37.134;-8.548;2022-12-18T15:49:51;102018.3;;;20.0;70.3
72124;BME280;63818;37.134;-8.548;2022-12-18T15:54:40;102021.4;;;19.8;70.6
72124;BME280;63818;37.134;-8.548;2022-12-18T15:59:28;102019.9;;;19.7;71.3
72124;BME280;63818;37.134;-8.548;2022-12-18T16:04:20;102021.5;;;19.3;72.3
72124;BME280;63818;37.134;-8.548;2022-12-18T16:09:10;102025.3;;;19.0;73.9
72124;BME280;63818;37.134;-8.548;2022-12-18T16:13:59;102029.0;;;18.7;74.9
72124;BME280;63818;37.134;-8.548;2022-12-18T16:18:47;102039.7;;;18.5;76.0
72124;BME280;63818;37.134;-8.548;2022-12-18T16:23:35;102051.0;;;18.3;77.3
72124;BME280;63818;37.134;-8.548;2022-12-18T16:28:24;102057.9;;;18.2;78.5
72124;BME280;63818;37.134;-8.548;2022-12-18T16:33:13;102056.4;;;18.0;79.3
72124;BME280;63818;37.134;-8.548;2022-12-18T16:38:01;102062.8;;;17.9;79.9
72124;BME280;63818;37.134;-8.548;2022-12-18T16:42:49;102076.9;;;17.8;80.6
72124;BME280;63818;37.134;-8.548;2022-12-18T16:47:38;102072.3;;;17.7;81.3
72124;BME280;63818;37.134;-8.548;2022-12-18T16:52:34;102075.0;;;17.7;82.2
72124;BME280;63818;37.134;-8.548;2022-12-18T16:57:27;102086.3;;;17.6;83.1
72124;BME280;63818;37.134;-8.548;2022-12-18T17:02:18;102086.8;;;17.5;83.7
72124;BME280;63818;37.134;-8.548;2022-12-18T17:07:09;102101.3;;;17.5;84.2
72124;BME280;63818;37.134;-8.548;2022-12-18T17:12:01;102100.7;;;17.4;84.9
72124;BME280;63818;37.134;-8.548;2022-12-18T17:16:49;102105.5;;;17.4;85.2
72124;BME280;63818;37.134;-8.548;2022-12-18T17:21:38;102099.9;;;17.3;85.8
72124;BME280;63818;37.134;-8.548;2022-12-18T17:26:29;102095.1;;;17.3;86.3
72124;BME280;63818;37.134;-8.548;2022-12-18T17:31:21;102086.8;;;17.3;86.8
72124;BME280;63818;37.134;-8.548;2022-12-18T17:41:05;102094.0;;;17.2;87.7
72124;BME280;63818;37.134;-8.548;2022-12-18T17:46:00;102098.9;;;17.2;88.1
72124;BME280;63818;37.134;-8.548;2022-12-18T17:50:54;102114.2;;;17.2;88.5
72124;BME280;63818;37.134;-8.548;2022-12-18T17:55:43;102112.7;;;17.2;88.7
72124;BME280;63818;37.134;-8.548;2022-12-18T18:00:32;102112.2;;;17.1;88.9
72124;BME280;63818;37.134;-8.548;2022-12-18T18:05:20;102113.3;;;17.1;89.4
72124;BME280;63818;37.134;-8.548;2022-12-18T18:10:09;102107.4;;;17.1;89.4
72124;BME280;63818;37.134;-8.548;2022-12-18T18:14:57;102100.2;;;17.1;90.1
72124;BME280;63818;37.134;-8.548;2022-12-18T18:19:46;102111.0;;;17.1;89.9
72124;BME280;63818;37.134;-8.548;2022-12-18T18:24:38;102102.1;;;17.0;90.5
72124;BME280;63818;37.134;-8.548;2022-12-18T18:29:30;102104.3;;;17.0;90.5
72124;BME280;63818;37.134;-8.548;2022-12-18T18:34:20;102113.6;;;17.0;90.8
72124;BME280;63818;37.134;-8.548;2022-12-18T18:39:12;102109.0;;;17.0;91.4
72124;BME280;63818;37.134;-8.548;2022-12-18T18:44:00;102114.9;;;17.0;91.2
72124;BME280;63818;37.134;-8.548;2022-12-18T18:48:49;102111.0;;;17.1;90.8
72124;BME280;63818;37.134;-8.548;2022-12-18T18:53:40;102107.2;;;17.1;90.7
72124;BME280;63818;37.134;-8.548;2022-12-18T19:03:20;102118.6;;;17.1;90.5
72124;BME280;63818;37.134;-8.548;2022-12-18T19:08:12;102133.0;;;17.1;90.4
72124;BME280;63818;37.134;-8.548;2022-12-18T19:13:01;102135.7;;;17.1;90.8
72124;BME280;63818;37.134;-8.548;2022-12-18T19:17:56;102134.9;;;17.1;91.0
72124;BME280;63818;37.134;-8.548;2022-12-18T19:22:45;102130.5;;;17.1;91.1
72124;BME280;63818;37.134;-8.548;2022-12-18T19:27:34;102128.1;;;17.1;91.1
72124;BME280;63818;37.134;-8.548;2022-12-18T19:32:23;102115.1;;;17.1;91.1
72124;BME280;63818;37.134;-8.548;2022-12-18T19:37:11;102128.6;;;17.1;90.9
72124;BME280;63818;37.134;-8.548;2022-12-18T19:42:00;102135.2;;;17.1;91.0
72124;BME280;63818;37.134;-8.548;2022-12-18T19:46:53;102129.2;;;17.0;90.9
72124;BME280;63818;37.134;-8.548;2022-12-18T19:51:43;102129.9;;;17.0;90.3
72124;BME280;63818;37.134;-8.548;2022-12-18T19:56:32;102143.2;;;17.0;90.2
72124;BME280;63818;37.134;-8.548;2022-12-18T20:01:23;102137.7;;;17.0;90.0
72124;BME280;63818;37.134;-8.548;2022-12-18T20:06:14;102137.4;;;17.0;90.3
72124;BME280;63818;37.134;-8.548;2022-12-18T20:11:05;102129.2;;;17.0;90.1
72124;BME280;63818;37.134;-8.548;2022-12-18T20:15:55;102127.6;;;17.0;90.3
72124;BME280;63818;37.134;-8.548;2022-12-18T20:20:43;102126.9;;;17.0;90.7
72124;BME280;63818;37.134;-8.548;2022-12-18T20:25:31;102132.3;;;17.0;90.4
72124;BME280;63818;37.134;-8.548;2022-12-18T20:30:20;102136.1;;;17.0;90.6
72124;BME280;63818;37.134;-8.548;2022-12-18T20:35:11;102142.4;;;17.0;90.8
72124;BME280;63818;37.134;-8.548;2022-12-18T20:40:02;102138.0;;;17.0;90.8
72124;BME280;63818;37.134;-8.548;2022-12-18T20:44:50;102129.4;;;17.0;91.1
72124;BME280;63818;37.134;-8.548;2022-12-18T20:49:43;102135.6;;;17.0;90.8
72124;BME280;63818;37.134;-8.548;2022-12-18T20:54:31;102137.9;;;17.0;91.2
72124;BME280;63818;37.134;-8.548;2022-12-18T20:59:20;102134.0;;;17.0;91.1
72124;BME280;63818;37.134;-8.548;2022-12-18T21:04:14;102128.9;;;17.0;91.0
72124;BME280;63818;37.134;-8.548;2022-12-18T21:09:03;102130.9;;;17.0;90.4
72124;BME280;63818;37.134;-8.548;2022-12-18T21:13:51;102133.6;;;17.0;90.3
72124;BME280;63818;37.134;-8.548;2022-12-18T21:18:42;102127.0;;;17.0;90.6
72124;BME280;63818;37.134;-8.548;2022-12-18T21:23:31;102140.6;;;17.0;90.9
72124;BME280;63818;37.134;-8.548;2022-12-18T21:28:19;102138.7;;;17.0;91.2
72124;BME280;63818;37.134;-8.548;2022-12-18T21:33:08;102142.5;;;17.0;91.1
72124;BME280;63818;37.134;-8.548;2022-12-18T21:37:58;102144.4;;;17.0;91.2
72124;BME280;63818;37.134;-8.548;2022-12-18T21:42:47;102137.7;;;17.0;91.7
72124;BME280;63818;37.134;-8.548;2022-12-18T21:47:35;102143.1;;;17.0;91.6
72124;BME280;63818;37.134;-8.548;2022-12-18T21:52:24;102148.1;;;16.9;92.3
72124;BME280;63818;37.134;-8.548;2022-12-18T21:57:14;102136.6;;;17.0;92.9
72124;BME280;63818;37.134;-8.548;2022-12-18T22:02:06;102129.4;;;16.9;93.1
72124;BME280;63818;37.134;-8.548;2022-12-18T22:06:54;102139.8;;;16.9;93.2
72124;BME280;63818;37.134;-8.548;2022-12-18T22:11:45;102143.1;;;16.9;93.5
72124;BME280;63818;37.134;-8.548;2022-12-18T22:16:33;102140.4;;;16.9;94.3
72124;BME280;63818;37.134;-8.548;2022-12-18T22:21:25;102138.5;;;16.9;94.6
72124;BME280;63818;37.134;-8.548;2022-12-18T22:26:14;102145.8;;;16.9;94.9
72124;BME280;63818;37.134;-8.548;2022-12-18T22:31:04;102145.8;;;16.9;95.4
72124;BME280;63818;37.134;-8.548;2022-12-18T22:35:55;102145.0;;;16.9;95.9
72124;BME280;63818;37.134;-8.548;2022-12-18T22:40:43;102144.5;;;16.8;96.3
72124;BME280;63818;37.134;-8.548;2022-12-18T22:45:34;102150.0;;;16.8;96.2
72124;BME280;63818;37.134;-8.548;2022-12-18T22:50:22;102144.8;;;16.8;96.4
72124;BME280;63818;37.134;-8.548;2022-12-18T22:55:14;102138.3;;;16.8;96.6
72124;BME280;63818;37.134;-8.548;2022-12-18T23:00:02;102142.4;;;16.8;96.3
72124;BME280;63818;37.134;-8.548;2022-12-18T23:04:52;102143.2;;;16.8;96.3
72124;BME280;63818;37.134;-8.548;2022-12-18T23:09:41;102154.1;;;16.8;96.0
72124;BME280;63818;37.134;-8.548;2022-12-18T23:14:29;102160.3;;;16.8;96.1
72124;BME280;63818;37.134;-8.548;2022-12-18T23:19:18;102156.0;;;16.8;95.6
72124;BME280;63818;37.134;-8.548;2022-12-18T23:24:08;102150.6;;;16.8;95.5
72124;BME280;63818;37.134;-8.548;2022-12-18T23:29:00;102137.0;;;16.8;95.2
72124;BME280;63818;37.134;-8.548;2022-12-18T23:33:51;102127.8;;;16.8;95.0
72124;BME280;63818;37.134;-8.548;2022-12-18T23:38:40;102132.9;;;16.8;95.2
72124;BME280;63818;37.134;-8.548;2022-12-18T23:43:29;102130.2;;;16.8;95.2
72124;BME280;63818;37.134;-8.548;2022-12-18T23:48:20;102119.6;;;16.8;95.5
72124;BME280;63818;37.134;-8.548;2022-12-18T23:53:11;102111.8;;;16.8;95.8
72124;BME280;63818;37.134;-8.548;2022-12-18T23:58:00;102108.6;;;16.8;95.8
